OSOK1: Oswego hwy 160

                                SHEF ID:       OSOK1     Oswego hwy 160
STATION TYPE:

PRECIP STAGE RIV-FLOW VOLTAGE BAT-LOAD
in ft cfs volt volt
Ccp-Rev Ccp-Rev Ccp-Rev Ccp-Rev Ccp-Rev
(America/Chicago)
02/15 00:00 0.00 11.20 1948 12.78 12.50
02/15 01:00 0.00 11.32 2050 12.76 12.49
02/15 02:00 0.00 11.42 2136 12.74 12.47
02/15 03:00 0.00 11.51 2214 12.72 12.44
02/15 04:00 0.00 11.58 2276 12.70 12.43
02/15 05:00 0.00 11.67 2356 12.68 12.40
02/15 06:00 0.00 11.75 2427 12.67 12.38
02/15 07:00 0.00 11.95 2610 12.65 12.37
02/15 08:00 0.00 12.18 2839 12.76 12.44
02/15 09:00 0.00 12.43 3099 13.62 13.07
02/15 10:00 0.00 12.65 3336 14.40 13.52
02/15 11:00 0.00 12.86 3567 14.28 13.39
02/15 12:00 0.00 13.04 3770 14.24 13.29
02/15 13:00 0.00 13.17 3919 13.78 13.18
02/15 14:00 0.00 13.29 4058 13.59 13.13
02/15 15:00 0.00 13.37 4153 13.51 13.06
02/15 16:00 0.00 13.41 4200 13.56 12.99
02/15 17:00 0.00 13.43 4224 13.56 13.03
02/15 18:00 0.00 13.45 4249 13.13 12.91
02/15 19:00 0.00 13.45 4249 12.94 12.70
02/15 20:00 0.00 13.42 4212 12.86 12.61
02/15 21:00 0.00 13.44 4236 12.83 12.57
02/15 22:00 0.00 13.46 4261 12.80 12.54
02/15 23:00 0.00 13.53 4345 12.78 12.52
Data processed at Mon 16Feb2026 05:50 GMT

NOTICE: If you are parsing this page

Please convert to using our Data API. Starting early 2026 we will be migrating to: https://water.usace.army.mil with modern pages rendered in JavaScript. When this migration completes you will no longer be able to scrape this page! CWMSDataAPI (CDA)

Timeseries IDs (TSIDs)

TSIDs used from left to right in the data table
OSWN.Precip-Inc.Total.1Hour.1Hour.Ccp-Rev
OSWN.Stage.Inst.1Hour.0.Ccp-Rev
OSWN.Flow.Inst.1Hour.0.Ccp-Rev
OSWN.Volt-Battery.Inst.1Hour.0.Ccp-Rev
OSWN.Volt-Battery Load.Inst.1Hour.0.Ccp-Rev

                            

All information presented herein is the property of the government of the United States of America and may be revised or deleted at any time without prior notice. Dissemination of this information without the expressed written consent of the Public Affairs Office, Tulsa District U.S. Army Corps of Engineers is strictly prohibited. These data are gathered electronically and, as presented, have NOT undergone any form of quality control. These data are NOT guaranteed to be valid or correct.